Time;durP1;ratioP1;P1;durP2;ratioP2;P2;SDS_P1;SDS_P2;PMS_P1;PMS_P2;Temp;Humidity;BMP_temperature;BMP_pressure;BME280_temperature;BME280_humidity;BME280_pressure;Samples;Min_cycle;Max_cycle;Signal;HPM_P1;HPM_P2
2022/12/29 00:02:18;;;;;;;21.35;9.18;;;9.90;99.90;;;;;;5078545;28;20051;-83
2022/12/29 00:04:43;;;;;;;22.92;8.80;;;9.90;99.90;;;;;;5078454;28;20048;-80
2022/12/29 00:07:09;;;;;;;25.05;10.20;;;9.90;99.90;;;;;;5077350;28;20083;-82
2022/12/29 00:09:36;;;;;;;24.45;10.10;;;9.90;99.90;;;;;;5076360;28;20037;-82
2022/12/29 00:12:03;;;;;;;25.73;10.95;;;9.90;99.90;;;;;;5077914;28;20136;-80
2022/12/29 00:17:14;;;;;;;22.85;11.45;;;9.90;99.90;;;;;;5076549;28;20143;-77
2022/12/29 00:36:37;;;;;;;23.63;9.35;;;9.90;99.90;;;;;;5077267;28;20083;-81
2022/12/29 00:44:37;;;;;;;21.55;9.50;;;9.80;99.90;;;;;;5077384;28;20044;-80
2022/12/29 00:47:04;;;;;;;20.75;8.63;;;9.90;99.90;;;;;;5076499;28;20041;-79
2022/12/29 00:49:30;;;;;;;19.05;8.15;;;9.80;99.90;;;;;;5075420;28;20504;-81
2022/12/29 00:52:07;;;;;;;25.63;8.52;;;9.90;99.90;;;;;;5075721;28;20048;-78
2022/12/29 00:54:35;;;;;;;24.45;8.18;;;9.80;99.90;;;;;;5076853;28;20041;-79
2022/12/29 00:57:01;;;;;;;20.67;10.02;;;9.90;99.90;;;;;;5076115;28;20138;-81
2022/12/29 00:59:27;;;;;;;20.87;7.90;;;9.90;99.90;;;;;;5110160;28;20052;-82
2022/12/29 01:01:54;;;;;;;22.83;7.95;;;9.90;99.90;;;;;;5058428;28;20060;-78
2022/12/29 01:04:21;;;;;;;17.92;7.65;;;10.00;99.90;;;;;;5075243;28;20044;-78
2022/12/29 01:06:47;;;;;;;18.90;7.38;;;10.00;99.90;;;;;;5059556;28;20048;-81
2022/12/29 01:11:59;;;;;;;18.25;7.25;;;10.10;99.90;;;;;;5077980;28;20447;-80
2022/12/29 01:14:25;;;;;;;16.45;6.72;;;10.10;99.90;;;;;;5081285;28;20083;-81
2022/12/29 01:16:51;;;;;;;15.57;6.53;;;10.10;99.90;;;;;;5079702;28;20426;-82
2022/12/29 01:19:18;;;;;;;17.10;7.20;;;10.10;99.90;;;;;;5081605;28;20071;-77
2022/12/29 01:21:44;;;;;;;18.33;7.57;;;10.10;99.90;;;;;;5078657;28;20055;-80
2022/12/29 01:24:10;;;;;;;15.30;7.17;;;10.20;99.90;;;;;;5079381;28;20128;-77
2022/12/29 01:26:36;;;;;;;18.58;6.70;;;10.10;99.90;;;;;;5076543;28;20745;-78
2022/12/29 01:29:01;;;;;;;17.77;6.28;;;10.20;99.90;;;;;;5076048;28;20044;-83
2022/12/29 01:31:27;;;;;;;16.35;6.88;;;10.20;99.90;;;;;;5077432;28;20090;-82
2022/12/29 01:33:53;;;;;;;15.93;7.07;;;10.30;99.90;;;;;;5076576;28;20471;-78
2022/12/29 01:36:19;;;;;;;15.77;6.22;;;10.30;99.90;;;;;;5060461;28;20082;-80
2022/12/29 01:38:45;;;;;;;16.83;6.70;;;10.40;99.90;;;;;;5078686;28;20052;-79
2022/12/29 01:41:13;;;;;;;16.13;6.15;;;10.40;99.90;;;;;;5077658;28;20055;-77
2022/12/29 01:43:44;;;;;;;16.70;6.82;;;10.40;99.90;;;;;;5077334;28;20106;-79
2022/12/29 01:46:37;;;;;;;17.85;7.50;;;10.40;99.90;;;;;;5077039;28;20040;-78
2022/12/29 01:49:26;;;;;;;17.48;6.10;;;10.40;99.90;;;;;;5076373;28;20100;-80
2022/12/29 01:51:56;;;;;;;14.18;5.50;;;10.50;99.90;;;;;;5078340;28;20080;-80
2022/12/29 01:54:26;;;;;;;15.57;6.53;;;10.50;99.90;;;;;;5076862;28;20059;-80
2022/12/29 01:56:55;;;;;;;15.20;6.10;;;10.50;99.90;;;;;;5075357;28;20044;-80
2022/12/29 01:59:26;;;;;;;15.00;6.15;;;10.50;99.90;;;;;;5075657;28;20048;-83
2022/12/29 02:01:51;;;;;;;14.60;5.97;;;10.50;99.90;;;;;;5076433;28;20056;-79
2022/12/29 02:04:17;;;;;;;11.65;5.40;;;10.40;99.90;;;;;;5076669;28;20044;-80
2022/12/29 02:06:52;;;;;;;11.23;4.45;;;10.40;99.90;;;;;;5075126;28;20546;-80
2022/12/29 02:09:19;;;;;;;13.45;5.15;;;10.40;99.90;;;;;;5074936;28;20048;-80
2022/12/29 02:11:45;;;;;;;11.35;5.43;;;10.40;99.90;;;;;;5043262;28;20052;-78
2022/12/29 02:14:12;;;;;;;12.97;5.30;;;10.40;99.90;;;;;;5081146;28;20060;-82
2022/12/29 02:17:13;;;;;;;11.50;4.78;;;10.50;99.90;;;;;;5080077;28;20044;-79
2022/12/29 02:19:47;;;;;;;11.60;4.65;;;10.40;99.90;;;;;;5081829;28;20075;-79
2022/12/29 02:22:51;;;;;;;13.07;5.53;;;10.40;99.90;;;;;;5082082;28;20049;-82
2022/12/29 02:25:43;;;;;;;9.98;3.83;;;10.40;99.90;;;;;;5078700;28;20087;-81
2022/12/29 02:28:37;;;;;;;10.70;4.47;;;10.50;99.90;;;;;;5069588;28;20442;-81
2022/12/29 02:31:14;;;;;;;13.77;5.07;;;10.40;99.90;;;;;;5077883;28;20084;-81
2022/12/29 02:33:58;;;;;;;14.13;5.35;;;10.30;99.90;;;;;;5077702;28;20049;-82
2022/12/29 02:36:36;;;;;;;11.65;5.40;;;10.20;99.90;;;;;;5078068;28;20082;-84
2022/12/29 02:39:09;;;;;;;11.60;4.38;;;10.20;99.90;;;;;;5076052;28;20041;-76
2022/12/29 02:41:54;;;;;;;13.00;4.72;;;10.10;99.90;;;;;;5074752;28;20051;-81
2022/12/29 02:44:53;;;;;;;13.00;5.57;;;10.10;99.90;;;;;;5073585;28;20581;-80
2022/12/29 02:47:45;;;;;;;11.60;4.40;;;10.10;99.90;;;;;;5074045;28;20051;-82
2022/12/29 02:50:48;;;;;;;13.50;5.07;;;10.10;99.90;;;;;;5073169;28;20060;-81
2022/12/29 02:53:17;;;;;;;12.02;5.05;;;10.00;99.90;;;;;;5070912;28;20114;-81
2022/12/29 02:55:49;;;;;;;14.15;3.92;;;10.00;99.90;;;;;;5074187;28;20044;-82
2022/12/29 02:58:21;;;;;;;10.23;3.83;;;10.00;99.90;;;;;;5056901;28;20048;-80
2022/12/29 03:01:21;;;;;;;11.15;4.18;;;10.10;99.90;;;;;;5074194;28;20049;-79
2022/12/29 03:03:59;;;;;;;11.32;4.03;;;10.00;99.90;;;;;;5065290;28;20059;-81
2022/12/29 03:06:51;;;;;;;11.43;3.60;;;10.00;99.90;;;;;;5074509;28;20040;-79
2022/12/29 03:09:20;;;;;;;11.00;3.42;;;10.00;99.90;;;;;;5075131;28;20150;-77
2022/12/29 03:12:14;;;;;;;12.27;4.13;;;9.90;99.90;;;;;;5075176;28;20047;-81
2022/12/29 03:18:08;;;;;;;12.95;4.00;;;9.80;99.90;;;;;;5078208;28;20056;-80
2022/12/29 03:20:49;;;;;;;9.88;3.80;;;9.80;99.90;;;;;;5077711;28;20143;-80
2022/12/29 03:23:16;;;;;;;10.82;4.00;;;9.80;99.90;;;;;;5079233;28;20423;-75
2022/12/29 03:25:49;;;;;;;13.38;3.70;;;9.80;99.90;;;;;;5112278;28;20052;-77
2022/12/29 03:28:23;;;;;;;15.68;4.03;;;9.80;99.90;;;;;;5079863;28;20141;-78
2022/12/29 03:30:48;;;;;;;12.68;4.30;;;9.80;99.90;;;;;;5080290;28;20128;-77
2022/12/29 03:33:18;;;;;;;11.32;3.50;;;9.90;99.90;;;;;;5079816;28;20503;-81
2022/12/29 03:35:46;;;;;;;9.90;3.47;;;9.90;99.90;;;;;;5076896;28;20052;-77
2022/12/29 03:38:22;;;;;;;9.65;3.75;;;9.90;99.90;;;;;;5078048;28;20053;-79
2022/12/29 03:40:52;;;;;;;7.57;2.87;;;10.00;99.90;;;;;;5078978;28;20369;-77
2022/12/29 03:43:18;;;;;;;12.57;3.65;;;10.00;99.90;;;;;;5078618;28;20278;-80
2022/12/29 03:45:44;;;;;;;12.98;2.95;;;10.00;99.90;;;;;;5078604;28;20082;-77
2022/12/29 03:48:10;;;;;;;10.65;3.30;;;10.10;99.90;;;;;;5078349;28;20216;-78
2022/12/29 03:50:35;;;;;;;10.70;2.67;;;10.00;99.90;;;;;;5077854;28;20060;-81
2022/12/29 03:53:01;;;;;;;11.43;2.88;;;10.10;99.90;;;;;;5080857;28;20048;-79
2022/12/29 03:55:27;;;;;;;8.93;2.50;;;10.20;99.90;;;;;;5079397;28;20044;-80
2022/12/29 03:57:52;;;;;;;11.73;2.67;;;10.10;99.90;;;;;;5079074;28;20048;-79
2022/12/29 04:00:18;;;;;;;11.13;2.70;;;10.20;99.90;;;;;;5078786;28;20149;-78
2022/12/29 04:02:44;;;;;;;10.98;2.50;;;10.20;99.90;;;;;;5079343;28;20040;-80
2022/12/29 04:05:10;;;;;;;11.65;2.17;;;10.20;99.90;;;;;;5086073;28;20083;-79
2022/12/29 04:07:35;;;;;;;14.35;2.00;;;10.30;99.90;;;;;;5072534;28;20088;-78
2022/12/29 04:10:01;;;;;;;9.50;1.90;;;10.30;99.90;;;;;;5090602;28;20144;-78
2022/12/29 04:12:27;;;;;;;9.88;1.48;;;10.30;99.90;;;;;;5086715;28;20040;-79
2022/12/29 04:14:52;;;;;;;7.25;1.20;;;10.30;99.90;;;;;;5086557;28;20070;-77
2022/12/29 04:17:19;;;;;;;9.50;1.20;;;10.30;99.90;;;;;;5087214;28;20048;-81
2022/12/29 04:19:44;;;;;;;5.07;1.52;;;10.30;99.90;;;;;;5086078;28;20036;-78
2022/12/29 04:22:11;;;;;;;7.60;1.40;;;10.30;99.90;;;;;;5078382;28;20062;-82
2022/12/29 04:24:37;;;;;;;6.38;0.98;;;10.30;99.90;;;;;;5077596;28;20044;-78
2022/12/29 04:27:03;;;;;;;6.95;1.83;;;10.30;99.90;;;;;;5077249;28;20044;-80
2022/12/29 04:29:28;;;;;;;10.68;1.02;;;10.30;99.90;;;;;;5078907;28;20036;-78
2022/12/29 04:31:54;;;;;;;6.50;1.20;;;10.20;99.90;;;;;;5079557;28;20039;-79
2022/12/29 04:34:20;;;;;;;10.57;1.10;;;10.20;99.90;;;;;;5060824;28;20060;-80
2022/12/29 04:36:45;;;;;;;9.57;1.08;;;10.20;99.90;;;;;;5078113;28;20098;-78
2022/12/29 04:39:11;;;;;;;11.77;1.13;;;10.30;99.90;;;;;;5079185;28;20064;-81
2022/12/29 04:41:37;;;;;;;10.93;1.10;;;10.30;99.90;;;;;;5081331;28;20040;-79
2022/12/29 04:44:03;;;;;;;11.07;1.33;;;10.20;99.90;;;;;;5082971;28;20049;-77
2022/12/29 04:46:28;;;;;;;8.95;0.80;;;10.10;99.90;;;;;;5081286;28;20040;-79
2022/12/29 04:48:54;;;;;;;9.00;1.17;;;10.10;99.90;;;;;;5045007;28;20105;-82
2022/12/29 04:51:20;;;;;;;6.88;1.13;;;10.10;99.90;;;;;;5081912;28;20097;-83
2022/12/29 04:53:46;;;;;;;9.35;1.50;;;10.10;99.90;;;;;;5082509;28;20475;-80
2022/12/29 04:56:11;;;;;;;7.90;1.27;;;10.10;99.90;;;;;;5083107;28;20044;-83
2022/12/29 04:58:37;;;;;;;11.85;1.20;;;10.10;99.90;;;;;;5080042;28;20126;-82
2022/12/29 05:01:03;;;;;;;13.27;1.60;;;10.10;99.90;;;;;;5080173;28;20037;-84
2022/12/29 05:03:28;;;;;;;9.30;1.10;;;10.20;99.90;;;;;;5080747;28;20048;-81
2022/12/29 05:05:55;;;;;;;6.35;1.15;;;10.20;99.90;;;;;;5083020;28;20495;-82
2022/12/29 05:08:22;;;;;;;14.13;1.60;;;10.30;99.90;;;;;;5083548;28;20048;-81
2022/12/29 05:10:49;;;;;;;14.05;1.63;;;10.30;99.90;;;;;;5082351;28;20048;-83
2022/12/29 05:13:15;;;;;;;10.02;1.50;;;10.30;99.90;;;;;;5082378;28;20162;-79
2022/12/29 05:15:41;;;;;;;10.80;1.30;;;10.20;99.90;;;;;;5083196;28;20048;-79
2022/12/29 05:18:06;;;;;;;10.18;1.92;;;10.20;99.90;;;;;;5086966;28;20050;-78
2022/12/29 05:20:32;;;;;;;22.08;1.88;;;10.20;99.90;;;;;;5084616;28;20047;-80
2022/12/29 05:22:58;;;;;;;10.45;2.60;;;10.10;99.90;;;;;;5081052;28;20053;-77
2022/12/29 05:25:23;;;;;;;8.90;1.92;;;10.10;99.90;;;;;;5082217;28;20044;-79
2022/12/29 05:27:49;;;;;;;10.73;2.25;;;10.00;99.90;;;;;;5083191;28;20052;-81
2022/12/29 05:30:15;;;;;;;10.27;2.53;;;10.10;99.90;;;;;;5081891;28;20040;-82
2022/12/29 05:32:41;;;;;;;13.15;2.53;;;10.00;99.90;;;;;;5083624;28;20174;-79
2022/12/29 05:35:07;;;;;;;14.43;3.25;;;10.00;99.90;;;;;;5081457;28;20059;-81
2022/12/29 05:37:32;;;;;;;10.55;2.65;;;10.00;99.90;;;;;;5083756;28;20072;-80
2022/12/29 05:39:59;;;;;;;9.57;2.13;;;10.00;99.90;;;;;;5081599;28;20048;-78
2022/12/29 05:42:24;;;;;;;13.05;2.60;;;10.00;99.90;;;;;;5065108;28;20044;-78
2022/12/29 05:44:53;;;;;;;19.15;2.85;;;10.00;99.90;;;;;;5080184;28;20074;-75
2022/12/29 05:47:19;;;;;;;14.48;2.80;;;10.00;99.90;;;;;;5083569;28;20052;-79
2022/12/29 05:49:45;;;;;;;10.52;2.72;;;9.90;99.90;;;;;;5082400;28;20057;-79
2022/12/29 05:52:10;;;;;;;10.27;1.95;;;10.00;99.90;;;;;;5081227;28;20063;-80
2022/12/29 05:54:36;;;;;;;10.73;2.08;;;10.00;99.90;;;;;;5079753;28;20056;-80
2022/12/29 05:57:02;;;;;;;14.65;2.33;;;9.90;99.90;;;;;;5080047;28;20105;-79
2022/12/29 05:59:28;;;;;;;9.90;1.48;;;9.90;99.90;;;;;;5079082;28;20044;-82
2022/12/29 06:01:53;;;;;;;15.35;1.77;;;10.00;99.90;;;;;;5082023;28;20048;-81
2022/12/29 06:04:19;;;;;;;18.73;2.15;;;9.90;99.90;;;;;;5079356;28;20048;-78
2022/12/29 06:06:45;;;;;;;14.18;1.52;;;9.80;99.90;;;;;;5080647;28;20053;-78
2022/12/29 06:09:11;;;;;;;24.80;3.17;;;9.80;99.90;;;;;;5080396;28;20167;-81
2022/12/29 06:11:37;;;;;;;10.82;1.45;;;9.80;99.90;;;;;;5081951;28;20044;-80
2022/12/29 06:14:03;;;;;;;16.27;1.92;;;9.80;99.90;;;;;;5080047;28;20054;-81
2022/12/29 06:16:28;;;;;;;12.27;1.10;;;9.80;99.90;;;;;;5080788;28;20090;-81
2022/12/29 06:18:54;;;;;;;22.58;1.30;;;9.70;99.90;;;;;;5079718;28;20067;-83
2022/12/29 06:21:20;;;;;;;10.15;1.08;;;9.70;99.90;;;;;;5079334;28;20509;-79
2022/12/29 06:23:45;;;;;;;12.73;0.90;;;9.70;99.90;;;;;;5079894;28;20109;-79
2022/12/29 06:26:11;;;;;;;15.73;1.67;;;9.70;99.90;;;;;;5079849;28;20068;-80
2022/12/29 06:28:37;;;;;;;11.63;1.13;;;9.80;99.90;;;;;;5079537;28;20040;-81
2022/12/29 06:31:03;;;;;;;13.48;1.52;;;9.90;99.90;;;;;;5079207;28;20060;-85
2022/12/29 06:33:29;;;;;;;10.05;1.10;;;9.90;99.90;;;;;;5074530;28;20148;-84
2022/12/29 06:35:55;;;;;;;10.85;1.05;;;9.90;99.90;;;;;;5073881;28;20056;-83
2022/12/29 06:38:20;;;;;;;15.30;1.27;;;9.90;99.90;;;;;;5074272;28;20122;-80
2022/12/29 06:40:46;;;;;;;10.68;1.05;;;9.90;99.90;;;;;;5074637;28;20504;-84
2022/12/29 06:43:12;;;;;;;16.60;2.28;;;9.90;99.90;;;;;;5074675;28;20048;-83
2022/12/29 06:45:39;;;;;;;11.32;1.15;;;9.90;99.90;;;;;;5074661;28;20198;-79
2022/12/29 06:48:05;;;;;;;11.38;1.25;;;9.90;99.90;;;;;;5073029;28;20091;-83
2022/12/29 06:50:31;;;;;;;22.30;1.60;;;9.90;99.90;;;;;;5055983;28;20083;-81
2022/12/29 06:52:57;;;;;;;17.67;1.10;;;9.90;99.90;;;;;;5056866;28;20047;-81
2022/12/29 06:55:23;;;;;;;13.80;1.50;;;9.90;99.90;;;;;;5056910;28;20048;-82
2022/12/29 06:57:48;;;;;;;10.63;1.30;;;9.90;99.90;;;;;;5073995;28;20048;-82
2022/12/29 07:00:15;;;;;;;15.05;1.17;;;9.90;99.90;;;;;;5056044;28;20128;-82
2022/12/29 07:02:40;;;;;;;19.88;1.50;;;9.90;99.90;;;;;;5074085;28;20056;-84
2022/12/29 07:05:08;;;;;;;21.35;1.52;;;9.80;99.90;;;;;;5074598;28;20445;-82
2022/12/29 07:07:34;;;;;;;16.67;1.90;;;9.80;99.90;;;;;;5075084;28;20048;-82
2022/12/29 07:10:00;;;;;;;18.10;1.13;;;9.80;99.90;;;;;;5075290;28;20052;-79
2022/12/29 07:12:25;;;;;;;17.33;2.10;;;9.70;99.90;;;;;;5077028;28;20044;-82
2022/12/29 07:14:51;;;;;;;14.88;0.90;;;9.70;99.90;;;;;;5077323;28;20141;-82
2022/12/29 07:17:17;;;;;;;30.17;1.83;;;9.70;99.90;;;;;;5076046;28;20396;-81
2022/12/29 07:19:44;;;;;;;23.23;1.67;;;9.70;99.90;;;;;;5074141;28;20135;-83
2022/12/29 07:22:09;;;;;;;19.50;2.30;;;9.60;99.90;;;;;;5056957;28;20086;-82
2022/12/29 07:24:35;;;;;;;27.92;3.58;;;9.70;99.90;;;;;;5073857;28;20494;-84
2022/12/29 07:27:01;;;;;;;18.80;2.00;;;9.70;99.90;;;;;;5074940;28;20487;-85
2022/12/29 07:29:27;;;;;;;18.75;1.48;;;9.70;99.90;;;;;;5074039;28;20041;-83
2022/12/29 07:31:52;;;;;;;17.30;1.55;;;9.60;99.90;;;;;;5073991;28;20469;-82
2022/12/29 07:34:18;;;;;;;12.65;1.13;;;9.70;99.90;;;;;;5072757;28;20056;-84
2022/12/29 07:36:44;;;;;;;10.82;1.17;;;9.70;99.90;;;;;;5056728;28;20392;-83
2022/12/29 07:39:09;;;;;;;22.58;2.53;;;9.70;99.90;;;;;;5056281;28;20532;-84
2022/12/29 07:41:35;;;;;;;25.85;2.47;;;9.70;99.90;;;;;;5073857;28;20048;-83
2022/12/29 07:44:01;;;;;;;18.13;1.63;;;9.80;99.90;;;;;;5073728;28;20554;-83
2022/12/29 07:46:27;;;;;;;16.73;1.08;;;9.80;99.90;;;;;;5073134;28;20484;-83
2022/12/29 07:48:52;;;;;;;15.60;1.42;;;9.80;99.90;;;;;;5072916;28;20045;-79
2022/12/29 07:51:18;;;;;;;17.23;1.05;;;9.80;99.90;;;;;;5074155;28;20060;-81
2022/12/29 07:53:44;;;;;;;26.75;3.05;;;9.80;99.90;;;;;;5072054;28;20068;-82
2022/12/29 07:56:10;;;;;;;20.27;1.38;;;9.80;99.90;;;;;;5073136;28;20049;-84
2022/12/29 07:58:35;;;;;;;18.73;1.92;;;9.80;99.90;;;;;;5072847;28;20044;-79
2022/12/29 08:01:01;;;;;;;22.25;2.03;;;9.80;99.90;;;;;;5073793;28;20180;-79
2022/12/29 08:03:27;;;;;;;10.90;1.33;;;9.90;99.90;;;;;;5073906;28;20495;-80
2022/12/29 08:05:52;;;;;;;19.92;1.90;;;9.80;99.90;;;;;;5056464;28;20041;-84
2022/12/29 08:08:19;;;;;;;21.00;1.60;;;9.80;99.90;;;;;;5075118;28;20456;-80
2022/12/29 08:10:45;;;;;;;25.90;3.70;;;9.80;99.90;;;;;;5059654;28;20053;-82
2022/12/29 08:13:12;;;;;;;23.35;1.75;;;9.70;99.90;;;;;;5075901;28;20055;-80
2022/12/29 08:15:38;;;;;;;25.50;2.28;;;9.70;99.90;;;;;;5075696;28;20048;-83
2022/12/29 08:18:04;;;;;;;22.10;1.60;;;9.70;99.90;;;;;;5077486;28;20178;-81
2022/12/29 08:20:29;;;;;;;17.33;2.08;;;9.70;99.90;;;;;;5076701;28;20555;-81
2022/12/29 08:22:55;;;;;;;14.95;1.65;;;9.80;99.90;;;;;;5075589;28;20044;-82
2022/12/29 08:25:21;;;;;;;21.60;2.28;;;9.70;99.90;;;;;;5076878;28;20048;-80
2022/12/29 08:27:46;;;;;;;15.60;1.83;;;9.70;99.90;;;;;;5060072;28;20477;-84
2022/12/29 08:30:12;;;;;;;22.95;1.98;;;9.70;99.90;;;;;;5076273;28;20045;-83
2022/12/29 08:32:38;;;;;;;22.73;2.47;;;9.70;99.90;;;;;;5077214;28;20041;-83
2022/12/29 08:35:04;;;;;;;17.10;1.73;;;9.70;99.90;;;;;;5076444;28;20054;-82
2022/12/29 08:37:32;;;;;;;13.32;1.17;;;9.70;99.90;;;;;;5076629;28;20060;-81
2022/12/29 08:39:59;;;;;;;16.83;1.13;;;9.70;99.90;;;;;;5077065;28;20051;-85
2022/12/29 08:42:30;;;;;;;16.73;1.73;;;9.70;99.90;;;;;;5059242;28;20088;-80
2022/12/29 08:44:57;;;;;;;15.75;1.30;;;9.70;99.90;;;;;;5076912;28;20048;-80
2022/12/29 08:47:22;;;;;;;17.65;1.10;;;9.70;99.90;;;;;;5075502;28;20053;-84
2022/12/29 08:49:48;;;;;;;24.00;1.33;;;9.70;99.90;;;;;;5075522;28;20068;-80
2022/12/29 08:52:14;;;;;;;17.00;1.67;;;9.70;99.90;;;;;;5076359;28;20059;-83
2022/12/29 08:54:39;;;;;;;18.75;1.45;;;9.70;99.90;;;;;;5076229;28;20052;-82
2022/12/29 08:57:05;;;;;;;18.10;1.35;;;9.70;99.90;;;;;;5076073;28;20088;-81
2022/12/29 08:59:31;;;;;;;17.40;1.45;;;9.70;99.90;;;;;;5076173;28;20045;-80
2022/12/29 09:01:57;;;;;;;20.83;1.88;;;9.70;99.90;;;;;;5075017;28;20131;-83
2022/12/29 09:04:23;;;;;;;19.27;2.40;;;9.70;99.90;;;;;;5080819;28;20131;-83
2022/12/29 09:06:49;;;;;;;12.23;1.23;;;9.70;99.90;;;;;;5087042;28;20133;-79
2022/12/29 09:09:15;;;;;;;17.05;1.85;;;9.80;99.90;;;;;;5083861;28;20092;-83
2022/12/29 09:11:41;;;;;;;14.43;1.27;;;9.80;99.90;;;;;;5085260;28;20108;-80
2022/12/29 09:14:07;;;;;;;18.25;1.70;;;9.80;99.90;;;;;;5087427;28;20059;-81
2022/12/29 09:16:33;;;;;;;13.48;1.60;;;9.70;99.90;;;;;;5084535;28;20052;-82
2022/12/29 09:18:59;;;;;;;17.47;2.40;;;9.70;99.90;;;;;;5081331;28;20510;-81
2022/12/29 09:21:25;;;;;;;16.75;1.90;;;9.60;99.90;;;;;;5079110;28;20045;-81
2022/12/29 09:23:51;;;;;;;12.98;1.70;;;9.60;99.90;;;;;;5077322;28;20062;-83
2022/12/29 09:26:17;;;;;;;20.70;1.60;;;9.60;99.90;;;;;;5109220;28;20044;-82
2022/12/29 09:28:44;;;;;;;22.05;3.13;;;9.50;99.90;;;;;;5076357;28;20044;-82
2022/12/29 09:31:10;;;;;;;17.48;2.75;;;9.50;99.90;;;;;;5076738;28;20128;-82
2022/12/29 09:33:36;;;;;;;29.77;3.30;;;9.50;99.90;;;;;;5077194;28;20071;-81
2022/12/29 09:36:02;;;;;;;21.13;2.45;;;9.40;99.90;;;;;;5074977;28;20512;-83
2022/12/29 09:38:29;;;;;;;14.98;2.13;;;9.40;99.90;;;;;;5075705;28;20040;-80
2022/12/29 09:41:01;;;;;;;20.70;2.97;;;9.40;99.90;;;;;;5109804;28;20496;-81
2022/12/29 09:43:59;;;;;;;17.05;2.25;;;9.40;99.90;;;;;;5077288;28;20048;-81
2022/12/29 09:46:57;;;;;;;15.90;2.13;;;9.50;99.90;;;;;;5077240;28;20492;-82
2022/12/29 09:49:45;;;;;;;23.20;2.10;;;9.60;99.90;;;;;;5064057;28;20044;-82
2022/12/29 09:52:29;;;;;;;15.18;1.73;;;9.60;99.90;;;;;;5075199;28;20052;-81
2022/12/29 09:55:12;;;;;;;27.33;2.33;;;9.70;99.90;;;;;;5073774;28;20493;-82
2022/12/29 09:57:54;;;;;;;20.35;2.28;;;9.70;99.90;;;;;;5075398;28;20484;-80
2022/12/29 10:00:23;;;;;;;21.85;1.73;;;9.90;99.90;;;;;;5059690;28;20566;-86
2022/12/29 10:03:13;;;;;;;13.55;1.15;;;10.00;99.90;;;;;;5074630;28;20048;-81
2022/12/29 10:06:08;;;;;;;17.30;1.45;;;10.00;99.90;;;;;;5075919;28;20465;-79
2022/12/29 10:08:33;;;;;;;19.27;1.90;;;10.00;99.90;;;;;;5073876;28;20045;-83
2022/12/29 10:11:23;;;;;;;21.98;1.70;;;10.00;99.90;;;;;;5074769;28;20098;-80
2022/12/29 10:14:26;;;;;;;26.67;2.33;;;10.00;99.90;;;;;;5073393;28;20455;-83
2022/12/29 10:17:01;;;;;;;22.27;1.90;;;9.80;99.90;;;;;;5074798;28;20162;-83
2022/12/29 10:19:54;;;;;;;25.17;2.30;;;9.70;99.90;;;;;;5075401;28;20041;-83
2022/12/29 10:22:20;;;;;;;18.77;1.85;;;9.60;99.90;;;;;;5073908;28;20052;-82
2022/12/29 10:24:49;;;;;;;16.02;1.48;;;9.50;99.90;;;;;;5074949;28;20504;-82
2022/12/29 10:27:16;;;;;;;23.25;2.33;;;9.40;99.90;;;;;;5073688;28;20052;-82
2022/12/29 10:29:55;;;;;;;16.73;1.65;;;9.30;99.90;;;;;;5072982;28;20040;-77
2022/12/29 10:32:35;;;;;;;18.77;2.10;;;9.20;99.90;;;;;;5074589;28;20050;-84
2022/12/29 10:35:11;;;;;;;19.73;2.08;;;9.10;99.90;;;;;;5074194;28;20123;-82
2022/12/29 10:37:43;;;;;;;19.83;2.10;;;9.10;99.90;;;;;;5090981;28;20056;-81
2022/12/29 10:40:32;;;;;;;20.95;1.98;;;9.10;99.90;;;;;;5073898;28;20040;-83
2022/12/29 10:42:59;;;;;;;17.63;2.97;;;9.20;99.90;;;;;;5057454;28;20457;-83
2022/12/29 10:45:30;;;;;;;23.37;2.43;;;9.10;99.90;;;;;;5075068;28;20044;-78
2022/12/29 10:48:11;;;;;;;22.80;2.03;;;9.20;99.90;;;;;;5057083;28;20052;-79
2022/12/29 10:50:42;;;;;;;17.77;1.70;;;9.20;99.90;;;;;;5072751;28;20048;-83
2022/12/29 10:53:19;;;;;;;16.02;2.03;;;9.30;99.90;;;;;;5072993;28;20404;-85
2022/12/29 10:55:45;;;;;;;16.08;1.88;;;9.20;99.90;;;;;;5074091;28;20048;-85
2022/12/29 10:58:14;;;;;;;11.25;2.38;;;9.30;99.90;;;;;;5073059;28;20048;-83
2022/12/29 11:00:41;;;;;;;17.50;1.85;;;9.30;99.90;;;;;;5073919;28;20040;-85
2022/12/29 11:03:13;;;;;;;11.18;1.45;;;9.40;99.90;;;;;;5072561;28;20566;-84
2022/12/29 11:05:41;;;;;;;15.50;2.22;;;9.40;99.90;;;;;;5074308;28;20056;-82
2022/12/29 11:08:21;;;;;;;21.55;1.92;;;9.40;99.90;;;;;;5074625;28;20090;-86
2022/12/29 11:11:01;;;;;;;14.88;1.60;;;9.50;99.90;;;;;;5074775;28;20048;-83
2022/12/29 11:13:29;;;;;;;16.40;2.13;;;9.50;99.90;;;;;;5073712;28;20109;-81
2022/12/29 11:15:55;;;;;;;22.25;2.47;;;9.50;99.90;;;;;;5075184;28;20040;-86
2022/12/29 11:18:22;;;;;;;17.73;3.45;;;9.60;99.90;;;;;;5073843;28;20127;-81
2022/12/29 11:20:53;;;;;;;15.40;1.67;;;9.60;99.90;;;;;;5057891;28;20081;-82
2022/12/29 11:23:30;;;;;;;13.07;2.10;;;9.50;99.90;;;;;;5074659;28;20080;-83
2022/12/29 11:26:07;;;;;;;12.30;2.80;;;9.50;99.90;;;;;;5074865;28;20048;-83
2022/12/29 11:28:33;;;;;;;13.50;2.15;;;9.60;99.90;;;;;;5073880;28;20381;-84
2022/12/29 11:31:01;;;;;;;19.45;3.20;;;9.60;99.90;;;;;;5075420;28;20044;-85
2022/12/29 11:33:31;;;;;;;14.10;2.60;;;9.40;99.90;;;;;;5076052;28;20389;-83
2022/12/29 11:36:19;;;;;;;23.60;2.72;;;9.40;99.90;;;;;;5075529;28;20102;-81
2022/12/29 11:38:55;;;;;;;16.25;2.00;;;9.40;99.90;;;;;;5077128;28;20044;-84
2022/12/29 11:41:25;;;;;;;11.15;2.00;;;9.40;99.90;;;;;;5076942;28;20333;-85
2022/12/29 11:43:52;;;;;;;26.50;2.50;;;9.50;99.90;;;;;;5080709;28;20049;-81
2022/12/29 11:46:29;;;;;;;17.85;2.47;;;9.60;99.90;;;;;;5077672;28;20507;-81
2022/12/29 11:48:59;;;;;;;23.58;2.50;;;9.70;99.90;;;;;;5079921;28;20048;-82
2022/12/29 11:51:39;;;;;;;20.25;2.10;;;9.70;99.90;;;;;;5079176;28;20063;-84
2022/12/29 11:54:05;;;;;;;20.48;2.22;;;9.90;99.90;;;;;;5079469;28;20047;-80
2022/12/29 11:56:41;;;;;;;23.65;2.80;;;10.00;99.90;;;;;;5078425;28;20085;-83
2022/12/29 11:59:38;;;;;;;15.98;1.70;;;10.20;99.90;;;;;;5078660;28;20051;-84
2022/12/29 12:02:25;;;;;;;20.27;2.35;;;10.30;99.90;;;;;;5078382;28;20051;-85
2022/12/29 12:04:53;;;;;;;;;;;10.50;99.90;;;;;;5079240;28;20536;-80
2022/12/29 12:07:44;;;;;;;20.83;2.55;;;10.50;99.90;;;;;;5060498;28;19926;-80
2022/12/29 12:10:22;;;;;;;17.42;1.95;;;10.40;99.90;;;;;;5079032;28;20045;-85
2022/12/29 12:13:10;;;;;;;23.73;2.65;;;10.40;99.90;;;;;;5077102;28;20041;-83
2022/12/29 12:15:41;;;;;;;29.13;2.80;;;10.30;99.90;;;;;;5077327;28;20083;-81
2022/12/29 12:18:47;;;;;;;25.80;2.95;;;10.10;99.90;;;;;;5077430;28;20045;-83
2022/12/29 12:21:17;;;;;;;16.50;3.13;;;10.10;99.90;;;;;;5077717;28;20101;-83
2022/12/29 12:24:18;;;;;;;35.15;3.47;;;10.00;99.90;;;;;;5082103;28;20048;-82
2022/12/29 12:26:52;;;;;;;29.67;3.28;;;9.80;99.90;;;;;;5082044;28;20394;-83
2022/12/29 12:29:40;;;;;;;37.10;4.20;;;9.90;99.90;;;;;;5083453;28;20044;-80
2022/12/29 12:32:19;;;;;;;22.17;2.92;;;9.90;99.90;;;;;;5065304;28;20053;-82
2022/12/29 12:34:46;;;;;;;33.33;3.40;;;10.10;99.90;;;;;;5081715;28;20051;-81
2022/12/29 12:37:17;;;;;;;36.28;3.92;;;10.20;99.90;;;;;;5082653;28;20045;-83
2022/12/29 12:40:21;;;;;;;25.88;2.65;;;10.30;99.90;;;;;;5080885;28;20068;-83
2022/12/29 12:43:24;;;;;;;32.78;3.63;;;10.40;99.90;;;;;;5080389;28;20190;-82
2022/12/29 12:46:24;;;;;;;24.70;3.15;;;10.30;99.90;;;;;;5082134;28;20179;-82
2022/12/29 12:49:08;;;;;;;28.38;3.13;;;10.20;99.90;;;;;;5080451;28;20108;-83
2022/12/29 12:51:43;;;;;;;23.95;2.58;;;10.20;99.90;;;;;;5063994;28;20052;-79
2022/12/29 12:54:33;;;;;;;25.05;3.00;;;10.20;99.90;;;;;;5080639;28;20088;-77
2022/12/29 12:57:05;;;;;;;35.75;3.25;;;10.20;99.90;;;;;;5081070;28;20514;-82
2022/12/29 12:59:51;;;;;;;23.17;2.40;;;10.10;99.90;;;;;;5080072;28;20104;-80
2022/12/29 13:02:26;;;;;;;;;;;10.00;99.90;;;;;;5078879;28;20217;-80
2022/12/29 13:05:04;;;;;;;26.60;3.15;;;9.90;99.90;;;;;;5079460;28;19920;-79
2022/12/29 13:08:08;;;;;;;28.70;3.00;;;9.90;99.90;;;;;;5079314;28;20121;-82
2022/12/29 13:10:52;;;;;;;28.27;2.50;;;9.80;99.90;;;;;;5071872;28;20052;-84
2022/12/29 13:13:47;;;;;;;28.67;3.58;;;9.80;99.90;;;;;;5081524;28;20044;-84
2022/12/29 13:16:39;;;;;;;26.95;2.42;;;9.90;99.90;;;;;;5081593;28;20123;-82
2022/12/29 13:19:30;;;;;;;24.27;3.33;;;9.80;99.90;;;;;;5078156;28;20059;-81
2022/12/29 13:22:16;;;;;;;12.88;1.65;;;9.90;99.90;;;;;;5079365;28;20053;-80
2022/12/29 13:24:59;;;;;;;22.07;2.20;;;9.80;99.90;;;;;;5080999;28;20056;-83
2022/12/29 13:27:43;;;;;;;23.60;2.80;;;9.70;99.90;;;;;;5082211;28;20171;-81
2022/12/29 13:30:27;;;;;;;25.48;3.28;;;9.60;99.90;;;;;;5082728;28;20044;-82
2022/12/29 13:33:17;;;;;;;30.55;2.42;;;9.50;99.90;;;;;;5067095;28;20068;-81
2022/12/29 13:36:08;;;;;;;21.00;3.10;;;9.50;99.90;;;;;;5084745;28;20117;-83
2022/12/29 13:38:49;;;;;;;22.95;2.50;;;9.40;99.90;;;;;;5081255;28;20127;-83